Time;durP1;ratioP1;P1;durP2;ratioP2;P2;SDS_P1;SDS_P2;PMS_P1;PMS_P2;Temp;Humidity;BMP_temperature;BMP_pressure;BME280_temperature;BME280_humidity;BME280_pressure;Samples;Min_cycle;Max_cycle;Signal;HPM_P1;HPM_P2
2021/12/17 00:01:00;;;;;;;168.75;71.40;;;4.40;99.90;;;;;;5114639;28;20536;-68
2021/12/17 00:03:47;;;;;;;171.35;71.80;;;4.40;99.90;;;;;;5118001;28;20066;-68
2021/12/17 00:08:54;;;;;;;145.95;63.40;;;4.40;99.90;;;;;;5118410;28;20457;-68
2021/12/17 00:11:21;;;;;;;120.45;58.15;;;4.40;99.90;;;;;;5117743;28;20031;-68
2021/12/17 00:13:48;;;;;;;126.00;57.95;;;4.40;99.90;;;;;;5098085;28;20462;-68
2021/12/17 00:16:20;;;;;;;115.70;56.40;;;4.40;99.90;;;;;;5098095;28;20024;-68
2021/12/17 00:18:59;;;;;;;129.65;61.80;;;4.40;99.90;;;;;;5109189;28;20032;-67
2021/12/17 00:48:52;;;;;;;111.82;54.42;;;4.30;99.90;;;;;;5117777;28;20023;-67
2021/12/17 00:54:19;;;;;;;115.53;57.30;;;4.40;99.90;;;;;;5099350;28;20366;-67
2021/12/17 00:56:48;;;;;;;142.00;69.35;;;4.40;99.90;;;;;;5099250;28;20285;-67
2021/12/17 00:59:14;;;;;;;159.38;79.32;;;4.30;99.90;;;;;;5117764;28;20073;-68
2021/12/17 01:01:40;;;;;;;156.32;76.10;;;4.30;99.90;;;;;;5099382;28;20067;-68
2021/12/17 01:04:06;;;;;;;162.95;76.90;;;4.30;99.90;;;;;;5117535;28;20066;-68
2021/12/17 01:06:32;;;;;;;152.25;71.57;;;4.30;99.90;;;;;;5098979;28;20027;-67
2021/12/17 01:08:59;;;;;;;141.63;70.68;;;4.30;99.90;;;;;;5116235;28;20073;-68
2021/12/17 01:11:25;;;;;;;147.20;73.15;;;4.30;99.90;;;;;;5115887;28;20020;-68
2021/12/17 01:14:29;;;;;;;156.25;73.30;;;4.30;99.90;;;;;;5034394;28;20033;-68
2021/12/17 01:17:17;;;;;;;170.00;72.97;;;4.30;99.90;;;;;;5092875;28;20504;-68
2021/12/17 01:23:56;;;;;;;155.20;70.75;;;4.30;99.90;;;;;;5050588;28;20036;-68
2021/12/17 01:35:28;;;;;;;143.23;64.53;;;4.30;99.90;;;;;;5087182;28;20020;-67
2021/12/17 01:43:45;;;;;;;139.50;62.83;;;4.30;99.90;;;;;;5033558;28;20025;-68
2021/12/17 01:46:15;;;;;;;163.80;74.05;;;4.40;99.90;;;;;;5033370;28;20099;-68
2021/12/17 01:59:50;;;;;;;168.68;85.25;;;4.20;99.90;;;;;;5033522;28;20534;-68
2021/12/17 02:02:16;;;;;;;195.20;88.97;;;4.20;99.90;;;;;;5033417;28;20037;-68
2021/12/17 02:04:43;;;;;;;202.75;91.57;;;4.20;99.90;;;;;;5033447;28;20047;-68
2021/12/17 02:07:10;;;;;;;187.32;88.35;;;4.20;99.90;;;;;;5033157;28;20046;-68
2021/12/17 02:10:19;;;;;;;151.30;68.45;;;4.20;99.90;;;;;;5033278;28;20120;-68
2021/12/17 02:29:14;;;;;;;170.65;75.70;;;4.10;99.90;;;;;;5094311;28;20020;-68
2021/12/17 02:31:40;;;;;;;158.20;71.05;;;4.20;99.90;;;;;;5095464;28;20039;-68
2021/12/17 02:34:50;;;;;;;142.25;67.88;;;4.10;99.90;;;;;;5077222;28;20382;-68
2021/12/17 02:36:59;;;;;;;149.67;71.07;;;4.20;99.90;;;;;;5095116;28;20406;-68
2021/12/17 02:40:14;;;;;;;141.68;62.50;;;4.20;99.90;;;;;;5077166;28;20275;-68
2021/12/17 02:48:02;;;;;;;168.98;74.72;;;4.20;99.90;;;;;;5093909;28;20024;-68
2021/12/17 02:50:28;;;;;;;134.10;62.67;;;4.20;99.90;;;;;;5076869;28;20031;-68
2021/12/17 02:52:56;;;;;;;153.57;70.65;;;4.20;99.90;;;;;;5076849;28;20048;-68
2021/12/17 02:55:23;;;;;;;173.80;76.43;;;4.20;99.90;;;;;;5094947;28;20086;-68
2021/12/17 02:57:49;;;;;;;144.10;65.95;;;4.20;99.90;;;;;;5094825;28;20032;-68
2021/12/17 03:00:16;;;;;;;145.10;68.65;;;4.30;99.90;;;;;;5094996;28;20028;-68
2021/12/17 03:02:44;;;;;;;137.95;62.47;;;4.20;99.90;;;;;;5076651;28;20035;-68
2021/12/17 03:05:11;;;;;;;150.25;67.88;;;4.30;99.90;;;;;;5076683;28;20036;-68
2021/12/17 03:07:41;;;;;;;150.63;70.43;;;4.30;99.90;;;;;;5094658;28;20027;-67
2021/12/17 03:10:10;;;;;;;170.55;76.55;;;4.30;99.90;;;;;;5095126;28;20398;-68
2021/12/17 03:12:48;;;;;;;160.70;73.75;;;4.30;99.90;;;;;;5094653;28;20495;-68
2021/12/17 03:25:36;;;;;;;191.48;76.80;;;4.20;99.90;;;;;;5113593;28;20458;-68
2021/12/17 03:28:02;;;;;;;203.52;82.85;;;4.20;99.90;;;;;;5114799;28;20079;-68
2021/12/17 03:30:29;;;;;;;171.73;72.20;;;4.20;99.90;;;;;;5096672;28;20385;-68
2021/12/17 03:32:55;;;;;;;178.60;70.80;;;4.20;99.90;;;;;;5096554;28;20031;-68
2021/12/17 03:35:21;;;;;;;158.07;67.82;;;4.20;99.90;;;;;;5096572;28;20048;-68
2021/12/17 03:37:47;;;;;;;194.18;81.80;;;4.20;99.90;;;;;;5099051;28;20043;-68
2021/12/17 03:40:16;;;;;;;176.45;73.63;;;4.20;99.90;;;;;;5100711;28;20031;-68
2021/12/17 03:42:47;;;;;;;176.85;72.72;;;4.20;99.90;;;;;;5100586;28;20027;-68
2021/12/17 03:45:15;;;;;;;152.27;65.25;;;4.20;99.90;;;;;;5100523;28;20124;-68
2021/12/17 03:47:54;;;;;;;164.20;69.63;;;4.30;99.90;;;;;;5100756;28;20020;-68
2021/12/17 03:50:22;;;;;;;166.25;67.28;;;4.30;99.90;;;;;;5100619;28;20023;-68
2021/12/17 03:52:50;;;;;;;167.40;69.00;;;4.30;99.90;;;;;;5089156;28;20050;-69
2021/12/17 03:55:17;;;;;;;157.90;67.45;;;4.30;99.90;;;;;;5080094;28;20024;-69
2021/12/17 03:57:46;;;;;;;165.30;69.88;;;4.30;99.90;;;;;;5080220;28;20036;-69
2021/12/17 04:00:13;;;;;;;139.13;62.95;;;4.30;99.90;;;;;;5098783;28;20078;-68
2021/12/17 04:02:49;;;;;;;180.73;76.00;;;4.30;99.90;;;;;;5080176;28;20107;-68
2021/12/17 04:05:33;;;;;;;154.23;70.50;;;4.30;99.90;;;;;;5096883;28;20043;-68
2021/12/17 04:08:32;;;;;;;141.13;65.07;;;4.30;99.90;;;;;;5079963;28;20025;-68
2021/12/17 04:11:19;;;;;;;137.50;62.65;;;4.40;99.90;;;;;;5098153;28;20036;-68
2021/12/17 04:13:55;;;;;;;122.22;56.35;;;4.40;99.90;;;;;;5059835;28;20040;-68
2021/12/17 04:16:26;;;;;;;93.20;46.88;;;4.40;99.90;;;;;;5059716;28;20033;-68
2021/12/17 04:18:52;;;;;;;108.95;52.38;;;4.40;99.90;;;;;;5077704;28;20047;-68
2021/12/17 04:21:20;;;;;;;109.53;53.67;;;4.40;99.90;;;;;;5059699;28;20033;-69
2021/12/17 04:23:48;;;;;;;112.90;54.15;;;4.50;99.90;;;;;;5059681;28;20041;-68
2021/12/17 04:26:16;;;;;;;106.18;51.42;;;4.40;99.90;;;;;;5077581;28;20033;-68
2021/12/17 04:28:46;;;;;;;127.35;58.97;;;4.50;99.90;;;;;;5059581;28;20025;-68
2021/12/17 04:31:14;;;;;;;91.40;46.70;;;4.50;99.90;;;;;;5059544;28;20025;-68
2021/12/17 04:33:42;;;;;;;95.25;50.10;;;4.40;99.90;;;;;;5059509;28;20029;-68
2021/12/17 04:36:15;;;;;;;123.93;54.67;;;4.50;99.90;;;;;;5059326;28;20024;-68
2021/12/17 04:38:42;;;;;;;126.57;55.20;;;4.50;99.90;;;;;;5076141;28;20021;-68
2021/12/17 04:41:40;;;;;;;91.82;46.35;;;4.50;99.90;;;;;;5059381;28;20028;-68
2021/12/17 04:57:31;;;;;;;92.95;46.13;;;4.50;99.90;;;;;;5095833;28;20032;-68
2021/12/17 05:00:02;;;;;;;92.22;42.50;;;4.50;99.90;;;;;;5096020;28;20035;-68
2021/12/17 05:02:33;;;;;;;85.55;40.35;;;4.60;99.90;;;;;;5078975;28;20038;-68
2021/12/17 05:05:08;;;;;;;81.13;42.22;;;4.60;99.90;;;;;;5078759;28;20089;-68
2021/12/17 05:07:40;;;;;;;78.75;39.83;;;4.60;99.90;;;;;;5078818;28;20032;-68
2021/12/17 05:21:01;;;;;;;84.90;42.43;;;4.80;99.90;;;;;;5095485;28;20481;-68
2021/12/17 05:23:36;;;;;;;84.97;43.13;;;4.90;99.90;;;;;;5078540;28;20032;-68
2021/12/17 05:26:06;;;;;;;109.55;49.38;;;4.90;99.90;;;;;;5078240;28;20089;-68
2021/12/17 05:28:37;;;;;;;106.03;46.83;;;4.90;99.90;;;;;;5078427;28;20097;-68
2021/12/17 05:31:05;;;;;;;94.03;47.60;;;5.00;99.90;;;;;;5095177;28;20051;-68
2021/12/17 05:33:35;;;;;;;95.97;47.90;;;4.90;99.90;;;;;;5078427;28;20118;-68
2021/12/17 05:36:03;;;;;;;100.82;50.90;;;4.90;99.90;;;;;;5094895;28;20028;-68
2021/12/17 05:38:30;;;;;;;104.80;57.13;;;4.90;99.90;;;;;;5078284;28;20139;-69
2021/12/17 05:40:56;;;;;;;85.07;43.70;;;4.90;99.90;;;;;;5095253;28;20556;-68
2021/12/17 05:43:23;;;;;;;84.70;42.97;;;4.90;99.90;;;;;;5078084;28;20395;-68
2021/12/17 05:48:24;;;;;;;72.60;37.50;;;4.90;99.90;;;;;;5077835;28;20052;-68
2021/12/17 05:50:53;;;;;;;61.45;33.28;;;4.90;99.90;;;;;;5094925;28;20036;-69
2021/12/17 05:53:20;;;;;;;63.67;33.78;;;5.00;99.90;;;;;;5093362;28;20158;-68
2021/12/17 05:55:47;;;;;;;48.35;29.27;;;5.00;99.90;;;;;;5098145;28;20430;-68
2021/12/17 05:58:14;;;;;;;52.58;30.52;;;5.00;99.90;;;;;;5098005;28;20043;-68
2021/12/17 06:00:42;;;;;;;66.78;34.63;;;5.00;99.90;;;;;;5097342;28;20034;-69
2021/12/17 06:03:43;;;;;;;47.78;28.33;;;5.00;99.90;;;;;;5104927;28;20032;-68
2021/12/17 06:06:11;;;;;;;42.92;27.88;;;5.00;99.90;;;;;;5097969;28;20076;-68
2021/12/17 06:08:37;;;;;;;45.28;30.10;;;5.00;99.90;;;;;;5097768;28;20030;-68
2021/12/17 06:11:03;;;;;;;54.42;38.22;;;5.00;99.90;;;;;;5116257;28;20166;-68
2021/12/17 06:13:29;;;;;;;48.15;31.98;;;5.00;99.90;;;;;;5078567;28;20020;-68
2021/12/17 06:15:56;;;;;;;54.67;33.13;;;5.00;99.90;;;;;;5077577;28;20027;-68
2021/12/17 06:18:21;;;;;;;44.95;28.65;;;5.00;99.90;;;;;;5077639;28;20024;-68
2021/12/17 06:20:47;;;;;;;47.50;28.27;;;5.00;99.90;;;;;;5069095;28;20094;-70
2021/12/17 06:23:14;;;;;;;52.92;33.65;;;5.00;99.90;;;;;;5066524;28;20031;-70
2021/12/17 06:25:40;;;;;;;52.50;33.55;;;5.00;99.90;;;;;;5082123;28;20051;-70
2021/12/17 06:28:06;;;;;;;58.20;33.13;;;4.90;99.90;;;;;;5090059;28;20052;-70
2021/12/17 06:30:33;;;;;;;56.53;33.28;;;4.90;99.90;;;;;;5108482;28;20034;-70
2021/12/17 06:33:00;;;;;;;61.15;36.13;;;4.90;99.90;;;;;;5069911;28;20024;-70
2021/12/17 06:35:30;;;;;;;45.83;28.73;;;4.90;99.90;;;;;;5071532;28;20473;-70
2021/12/17 06:37:56;;;;;;;54.55;33.45;;;4.90;99.90;;;;;;5073106;28;20028;-70
2021/12/17 06:40:36;;;;;;;56.05;34.05;;;4.90;99.90;;;;;;5073557;28;20123;-70
2021/12/17 06:43:06;;;;;;;67.80;41.63;;;5.00;99.90;;;;;;5087033;28;20119;-70
2021/12/17 06:45:53;;;;;;;74.50;41.97;;;5.00;99.90;;;;;;5100679;28;20034;-71
2021/12/17 06:48:24;;;;;;;61.53;37.00;;;5.00;99.90;;;;;;5075404;28;20073;-71
2021/12/17 06:57:46;;;;;;;;;;;5.10;99.90;;;;;;5050513;28;20044;-71
2021/12/17 07:00:21;;;;;;;54.40;32.03;;;5.10;99.90;;;;;;5061166;28;19920;-71
2021/12/17 07:34:12;;;;;;;69.18;39.38;;;5.40;99.90;;;;;;4984106;28;20060;-70
2021/12/17 07:39:38;;;;;;;64.57;36.97;;;5.70;99.90;;;;;;4999356;28;20034;-71
2021/12/17 07:42:26;;;;;;;74.78;42.28;;;5.80;99.90;;;;;;4990626;28;20046;-70
2021/12/17 07:44:55;;;;;;;74.25;41.60;;;5.80;99.90;;;;;;5001796;28;20038;-71
2021/12/17 07:47:34;;;;;;;81.32;45.08;;;5.90;99.90;;;;;;4986389;28;20045;-70
2021/12/17 07:50:31;;;;;;;77.43;43.70;;;5.90;99.90;;;;;;5054950;28;20120;-70
2021/12/17 07:53:00;;;;;;;101.00;52.03;;;5.90;99.90;;;;;;5079148;28;20105;-71
2021/12/17 07:55:31;;;;;;;106.80;57.13;;;5.90;99.90;;;;;;5086978;28;20484;-71
2021/12/17 07:57:58;;;;;;;94.25;52.08;;;6.00;99.90;;;;;;5078189;28;20028;-71
2021/12/17 08:00:32;;;;;;;94.20;48.90;;;6.10;99.90;;;;;;5102595;28;20034;-71
2021/12/17 08:03:02;;;;;;;142.07;75.50;;;6.10;99.90;;;;;;5088343;28;20032;-71
2021/12/17 08:05:50;;;;;;;109.82;53.80;;;6.10;99.90;;;;;;5074501;28;20487;-72
2021/12/17 08:08:16;;;;;;;127.57;59.78;;;6.00;99.90;;;;;;5084684;28;20027;-71
2021/12/17 08:10:47;;;;;;;145.57;68.53;;;6.10;99.90;;;;;;5084560;28;20037;-71
2021/12/17 08:13:27;;;;;;;150.50;70.78;;;6.10;99.90;;;;;;5071117;28;20863;-71
2021/12/17 08:26:20;;;;;;;78.22;43.33;;;6.20;99.90;;;;;;5066569;28;20535;-71
2021/12/17 08:29:12;;;;;;;135.88;64.35;;;6.20;99.90;;;;;;5079530;28;20028;-71
2021/12/17 08:31:38;;;;;;;121.68;57.50;;;6.20;99.90;;;;;;5074722;28;20047;-71
2021/12/17 08:34:05;;;;;;;73.03;37.35;;;6.30;99.90;;;;;;5074090;28;20074;-71
2021/12/17 08:36:33;;;;;;;104.93;49.60;;;6.10;99.90;;;;;;5076863;28;20089;-71
2021/12/17 08:39:00;;;;;;;76.20;39.53;;;6.10;99.90;;;;;;5075028;28;21002;-71
2021/12/17 08:41:30;;;;;;;82.00;42.65;;;6.10;99.90;;;;;;5094286;28;20032;-70
2021/12/17 08:43:58;;;;;;;78.00;41.17;;;6.10;99.90;;;;;;5071299;28;20497;-70
2021/12/17 08:46:25;;;;;;;62.50;35.70;;;6.20;99.90;;;;;;5085870;28;20057;-71
2021/12/17 08:49:17;;;;;;;43.05;28.25;;;6.20;99.90;;;;;;5095710;28;20040;-71
2021/12/17 08:52:04;;;;;;;48.47;30.15;;;6.10;99.90;;;;;;5108058;28;20366;-70
2021/12/17 08:54:31;;;;;;;48.15;29.63;;;6.20;99.90;;;;;;5096488;28;20031;-71
2021/12/17 08:56:57;;;;;;;50.10;31.77;;;6.10;99.90;;;;;;5076796;28;20032;-52
2021/12/17 08:59:29;;;;;;;55.95;32.80;;;6.30;99.90;;;;;;5074595;28;20027;-51
2021/12/17 09:02:13;;;;;;;50.15;29.92;;;6.20;99.90;;;;;;5089095;28;20673;-71
2021/12/17 09:04:58;;;;;;;55.25;33.30;;;6.30;99.90;;;;;;5078382;28;20041;-71
2021/12/17 09:07:24;;;;;;;60.88;32.90;;;6.30;99.90;;;;;;5079380;28;20473;-71
2021/12/17 09:10:03;;;;;;;57.03;31.60;;;6.40;99.90;;;;;;5082760;28;20023;-72
2021/12/17 09:12:32;;;;;;;57.28;30.50;;;6.60;99.90;;;;;;5088177;28;20019;-71
2021/12/17 09:15:01;;;;;;;50.03;28.60;;;6.70;99.90;;;;;;5079269;28;20028;-72
2021/12/17 09:17:47;;;;;;;51.35;28.48;;;6.90;99.90;;;;;;5097046;28;20046;-72
2021/12/17 09:20:16;;;;;;;33.22;21.77;;;7.30;99.90;;;;;;5096099;28;20486;-72
2021/12/17 09:22:42;;;;;;;33.15;19.83;;;7.50;99.90;;;;;;5084373;28;20347;-72
2021/12/17 09:25:14;;;;;;;31.85;18.58;;;7.50;99.90;;;;;;5095726;28;20024;-72
2021/12/17 09:27:56;;;;;;;22.63;15.55;;;7.50;99.90;;;;;;5095643;28;20393;-72
2021/12/17 09:30:33;;;;;;;23.77;15.95;;;7.40;99.90;;;;;;5097066;28;20027;-71
2021/12/17 09:32:59;;;;;;;30.33;17.13;;;7.40;99.90;;;;;;5097202;28;20397;-71
2021/12/17 09:35:24;;;;;;;29.15;17.13;;;7.40;99.90;;;;;;5094828;28;20123;-71
2021/12/17 09:37:51;;;;;;;29.77;16.77;;;7.40;99.90;;;;;;5097115;28;20032;-72
2021/12/17 09:40:17;;;;;;;34.88;16.33;;;7.50;99.90;;;;;;5096051;28;20039;-72
2021/12/17 09:42:45;;;;;;;28.92;17.25;;;7.60;99.90;;;;;;5096645;28;20027;-73
2021/12/17 09:45:13;;;;;;;27.77;18.13;;;7.70;99.90;;;;;;5095985;28;20031;-72
2021/12/17 09:47:42;;;;;;;29.52;18.98;;;7.70;99.90;;;;;;5111062;28;20083;-72
2021/12/17 09:50:10;;;;;;;24.65;15.40;;;7.70;99.90;;;;;;5102667;28;20023;-72
2021/12/17 09:52:36;;;;;;;30.80;17.33;;;7.80;99.90;;;;;;5086096;28;20779;-72
2021/12/17 09:55:05;;;;;;;25.98;17.90;;;7.80;99.90;;;;;;5090286;28;20052;-73
2021/12/17 09:57:36;;;;;;;30.98;15.65;;;7.90;99.90;;;;;;5094325;28;20059;-73
2021/12/17 10:00:21;;;;;;;23.95;14.25;;;8.10;99.90;;;;;;5093995;28;20038;-72
2021/12/17 10:02:51;;;;;;;20.73;12.68;;;8.20;99.90;;;;;;5095396;28;20028;-71
2021/12/17 10:05:28;;;;;;;23.77;14.43;;;8.10;99.90;;;;;;5099739;28;20028;-70
2021/12/17 10:08:00;;;;;;;22.35;13.52;;;7.80;99.90;;;;;;5071033;28;20127;-71
2021/12/17 10:10:36;;;;;;;23.35;14.68;;;7.60;99.90;;;;;;5098344;28;20024;-70
2021/12/17 10:13:10;;;;;;;33.35;17.25;;;7.50;99.90;;;;;;5093697;28;20031;-70
2021/12/17 10:15:39;;;;;;;22.10;14.40;;;7.60;99.90;;;;;;5072357;28;20410;-71
2021/12/17 10:18:05;;;;;;;24.08;15.52;;;7.50;99.90;;;;;;5089413;28;20055;-70
2021/12/17 10:20:42;;;;;;;23.13;13.93;;;7.50;99.90;;;;;;5091559;28;20064;-70
2021/12/17 10:23:10;;;;;;;27.40;17.45;;;7.50;99.90;;;;;;5071165;28;20059;-70
2021/12/17 10:25:41;;;;;;;32.05;19.48;;;7.50;99.90;;;;;;5090512;28;20453;-69
2021/12/17 10:28:08;;;;;;;31.75;18.70;;;7.40;99.90;;;;;;5086723;28;20613;-69
2021/12/17 10:30:42;;;;;;;28.67;17.27;;;7.40;99.90;;;;;;5092971;28;20020;-69
2021/12/17 10:33:19;;;;;;;45.83;22.48;;;7.40;99.90;;;;;;5097326;28;20024;-69
2021/12/17 10:35:49;;;;;;;28.50;16.92;;;7.20;99.90;;;;;;5090046;28;20469;-69
2021/12/17 10:38:24;;;;;;;30.55;18.00;;;7.20;99.90;;;;;;5093570;28;20031;-71
2021/12/17 10:41:01;;;;;;;34.22;19.30;;;7.20;99.90;;;;;;5072375;28;20032;-69
2021/12/17 10:43:35;;;;;;;39.85;21.20;;;7.20;99.90;;;;;;5103458;27;20110;-68
2021/12/17 10:53:59;;;;;;;33.38;18.02;;;7.20;99.90;;;;;;5090399;28;20057;-69
2021/12/17 10:56:32;;;;;;;31.88;16.60;;;7.20;99.90;;;;;;5087658;28;20029;-69
2021/12/17 10:59:08;;;;;;;38.17;19.25;;;7.10;99.90;;;;;;5092248;28;20455;-70
2021/12/17 11:01:44;;;;;;;50.50;24.60;;;7.20;99.90;;;;;;5096011;28;20542;-69
2021/12/17 11:04:21;;;;;;;49.03;23.75;;;7.10;99.90;;;;;;5083153;28;20036;-69
2021/12/17 11:06:53;;;;;;;43.00;21.67;;;7.10;99.90;;;;;;5078654;28;20402;-69
2021/12/17 11:09:37;;;;;;;67.13;30.02;;;7.10;99.90;;;;;;5090468;28;20438;-69
2021/12/17 11:12:17;;;;;;;89.18;34.35;;;7.10;99.90;;;;;;5084544;28;20481;-69
2021/12/17 11:14:45;;;;;;;92.53;34.35;;;7.10;99.90;;;;;;5091999;28;20034;-69
2021/12/17 11:17:21;;;;;;;61.10;27.80;;;7.20;99.90;;;;;;5097938;28;20035;-69
2021/12/17 11:19:51;;;;;;;43.25;20.98;;;7.20;99.90;;;;;;5099300;28;21071;-69
2021/12/17 11:22:18;;;;;;;33.35;18.63;;;7.10;99.90;;;;;;5087191;28;20443;-69
2021/12/17 11:24:44;;;;;;;26.88;17.20;;;7.10;99.90;;;;;;5083228;28;20524;-69
2021/12/17 11:27:10;;;;;;;26.50;15.27;;;7.00;99.90;;;;;;5084888;28;20054;-69
2021/12/17 11:29:36;;;;;;;23.23;14.98;;;7.00;99.90;;;;;;5088552;28;20442;-69
2021/12/17 11:32:04;;;;;;;23.15;13.50;;;6.90;99.90;;;;;;5088853;28;20044;-69
2021/12/17 11:34:34;;;;;;;25.23;14.15;;;6.80;99.90;;;;;;5081639;28;20032;-69
2021/12/17 11:37:02;;;;;;;23.83;14.82;;;6.80;99.90;;;;;;5089851;28;20409;-69
2021/12/17 11:39:33;;;;;;;22.02;15.00;;;6.70;99.90;;;;;;5091606;28;20496;-69
2021/12/17 11:42:41;;;;;;;26.58;16.23;;;6.60;99.90;;;;;;5090761;28;20586;-69
2021/12/17 11:45:23;;;;;;;20.48;14.40;;;6.60;99.90;;;;;;5085935;28;20493;-69
2021/12/17 11:47:50;;;;;;;25.17;14.93;;;6.60;99.90;;;;;;5094841;28;20462;-69
2021/12/17 11:50:17;;;;;;;29.83;16.65;;;6.70;99.90;;;;;;5091027;28;20111;-69
2021/12/17 11:52:49;;;;;;;23.75;16.38;;;6.70;99.90;;;;;;5087390;28;20103;-69
2021/12/17 11:55:21;;;;;;;27.27;17.23;;;6.70;99.90;;;;;;5088061;28;20028;-69
2021/12/17 11:57:48;;;;;;;27.98;16.70;;;6.70;99.90;;;;;;5086585;28;20040;-69
2021/12/17 12:00:16;;;;;;;26.15;15.65;;;6.70;99.90;;;;;;5091755;28;20028;-69
2021/12/17 12:02:56;;;;;;;26.80;16.42;;;6.80;99.90;;;;;;5093088;28;20449;-69
2021/12/17 12:05:40;;;;;;;33.08;18.80;;;6.80;99.90;;;;;;5093767;28;20024;-70
2021/12/17 12:08:33;;;;;;;24.90;15.95;;;7.00;99.90;;;;;;5089585;28;20023;-69
2021/12/17 12:11:07;;;;;;;30.25;16.67;;;7.00;99.90;;;;;;5092341;28;20492;-69
2021/12/17 12:13:36;;;;;;;27.52;16.63;;;7.10;99.90;;;;;;5092857;28;20106;-70
2021/12/17 12:16:05;;;;;;;27.90;14.82;;;7.30;99.90;;;;;;5093038;28;20052;-70
2021/12/17 12:18:46;;;;;;;27.17;15.60;;;7.40;99.90;;;;;;5078888;28;20487;-70
2021/12/17 12:21:21;;;;;;;23.20;13.93;;;7.50;99.90;;;;;;5093332;28;20503;-70
2021/12/17 12:23:53;;;;;;;25.40;14.45;;;7.50;99.90;;;;;;5091033;28;20119;-71
2021/12/17 12:26:27;;;;;;;16.88;10.10;;;7.70;99.90;;;;;;5091949;28;20715;-72
2021/12/17 12:28:58;;;;;;;18.17;10.02;;;8.30;99.90;;;;;;5100463;28;20465;-72
2021/12/17 12:31:35;;;;;;;22.17;12.23;;;8.80;99.90;;;;;;5091945;28;20028;-72
2021/12/17 12:34:07;;;;;;;21.90;11.35;;;9.00;99.90;;;;;;5085940;28;20028;-71
2021/12/17 12:36:48;;;;;;;20.77;11.32;;;9.20;99.90;;;;;;5092767;28;20028;-51
2021/12/17 12:39:43;;;;;;;21.95;11.60;;;9.20;99.90;;;;;;5082878;28;20035;-51
2021/12/17 12:42:29;;;;;;;22.88;11.40;;;9.10;99.90;;;;;;5095654;28;20036;-52
2021/12/17 12:44:58;;;;;;;22.42;12.50;;;9.10;99.90;;;;;;5097399;28;20032;-52
2021/12/17 12:47:24;;;;;;;22.33;10.57;;;9.00;99.90;;;;;;5095743;28;20032;-52
2021/12/17 12:50:12;;;;;;;19.33;9.93;;;9.00;99.90;;;;;;5095558;28;20382;-51
2021/12/17 12:52:56;;;;;;;19.15;10.10;;;8.90;99.90;;;;;;5094539;28;20055;-52
2021/12/17 12:55:28;;;;;;;16.38;8.23;;;8.80;99.90;;;;;;5090026;28;20477;-51
2021/12/17 12:58:02;;;;;;;18.42;9.07;;;8.90;99.90;;;;;;5096149;28;20403;-51
2021/12/17 13:00:57;;;;;;;14.65;8.60;;;8.90;99.90;;;;;;5099493;28;20375;-51
2021/12/17 13:03:31;;;;;;;17.40;8.48;;;8.70;99.90;;;;;;5093313;28;20346;-51
2021/12/17 13:05:59;;;;;;;18.20;10.02;;;8.70;99.90;;;;;;5094592;28;20024;-51
2021/12/17 13:08:26;;;;;;;19.05;9.40;;;8.60;99.90;;;;;;5097328;28;20492;-51
2021/12/17 13:10:59;;;;;;;21.10;10.07;;;8.60;99.90;;;;;;5095638;28;20077;-51
2021/12/17 13:13:52;;;;;;;32.22;15.70;;;8.50;99.90;;;;;;5079402;28;20411;-51
2021/12/17 13:16:53;;;;;;;24.58;10.60;;;8.50;99.90;;;;;;5097658;28;20032;-52
2021/12/17 13:24:31;;;;;;;24.30;12.13;;;8.20;99.90;;;;;;5101844;28;20040;-51
2021/12/17 13:27:09;;;;;;;364.67;133.05;;;8.10;99.90;;;;;;5085835;28;20024;-52
2021/12/17 13:29:38;;;;;;;191.35;71.25;;;8.00;99.90;;;;;;5094416;28;20381;-51
2021/12/17 13:32:16;;;;;;;33.35;13.23;;;7.80;99.90;;;;;;5094076;28;20112;-52
2021/12/17 13:34:56;;;;;;;33.10;15.57;;;7.70;99.90;;;;;;5091508;28;20024;-51
2021/12/17 13:37:34;;;;;;;264.93;99.97;;;7.70;99.90;;;;;;5091780;28;20063;-51
2021/12/17 13:40:09;;;;;;;185.27;71.55;;;7.60;99.90;;;;;;5083141;28;20268;-51
2021/12/17 13:42:46;;;;;;;151.40;52.75;;;7.60;99.90;;;;;;5097590;28;20108;-52
2021/12/17 13:45:13;;;;;;;124.22;49.17;;;7.50;99.90;;;;;;5121459;27;20059;-51
2021/12/17 13:47:45;;;;;;;104.07;50.70;;;7.40;99.90;;;;;;5095188;28;20027;-51
2021/12/17 13:50:34;;;;;;;107.30;58.75;;;7.30;99.90;;;;;;5097557;28;20042;-51
2021/12/17 13:53:10;;;;;;;90.15;46.28;;;7.30;99.90;;;;;;5097060;28;20044;-51
2021/12/17 13:55:42;;;;;;;55.08;26.55;;;7.30;99.90;;;;;;5083731;28;20017;-51
2021/12/17 13:58:09;;;;;;;63.90;32.72;;;7.30;99.90;;;;;;5093161;28;20024;-51
2021/12/17 14:00:42;;;;;;;297.75;134.40;;;7.20;99.90;;;;;;5096216;28;20492;-51
2021/12/17 14:03:14;;;;;;;58.28;27.13;;;7.10;99.90;;;;;;5090093;28;20060;-52
2021/12/17 14:05:46;;;;;;;48.08;21.55;;;7.10;99.90;;;;;;5083036;28;20658;-51
2021/12/17 14:08:15;;;;;;;31.42;14.73;;;7.10;99.90;;;;;;5100316;28;20028;-51
2021/12/17 14:10:42;;;;;;;91.75;42.60;;;6.90;99.90;;;;;;5095335;28;20032;-51
2021/12/17 14:13:20;;;;;;;83.57;36.35;;;6.80;99.90;;;;;;5094581;28;20028;-51
2021/12/17 14:15:47;;;;;;;43.65;18.23;;;6.80;99.90;;;;;;5089476;28;20084;-51
2021/12/17 14:18:19;;;;;;;48.30;21.95;;;6.80;99.90;;;;;;5092945;28;20028;-51
2021/12/17 14:20:48;;;;;;;23.30;11.32;;;6.70;99.90;;;;;;5091956;28;20020;-51
2021/12/17 14:23:19;;;;;;;28.27;12.55;;;6.60;99.90;;;;;;5090262;28;20028;-51
2021/12/17 14:25:53;;;;;;;26.58;19.00;;;6.50;99.90;;;;;;5093476;28;20141;-51
2021/12/17 14:28:21;;;;;;;19.88;11.45;;;6.50;99.90;;;;;;5091755;28;20060;-51
2021/12/17 14:31:02;;;;;;;20.52;9.20;;;6.50;99.90;;;;;;5082874;28;20057;-51
2021/12/17 14:33:40;;;;;;;19.48;8.65;;;6.40;99.90;;;;;;5093370;28;20513;-51
2021/12/17 14:36:14;;;;;;;17.80;8.25;;;6.30;99.90;;;;;;5099474;28;20036;-51
2021/12/17 14:38:49;;;;;;;13.38;6.30;;;6.30;99.90;;;;;;5078481;28;20500;-51
2021/12/17 14:41:21;;;;;;;14.48;6.88;;;6.30;99.90;;;;;;5074741;28;20028;-51
2021/12/17 14:43:57;;;;;;;14.38;7.85;;;6.20;99.90;;;;;;5074729;28;20040;-51
2021/12/17 14:46:27;;;;;;;12.55;7.18;;;6.00;99.90;;;;;;5104642;28;20032;-51
2021/12/17 15:00:52;;;;;;;27.85;14.77;;;5.80;99.90;;;;;;5090086;28;20031;-51
2021/12/17 15:05:56;;;;;;;46.58;20.92;;;5.70;99.90;;;;;;5095233;28;20095;-51
2021/12/17 15:08:22;;;;;;;37.63;18.10;;;5.70;99.90;;;;;;5094884;28;20055;-51
2021/12/17 15:10:48;;;;;;;30.35;13.18;;;5.70;99.90;;;;;;5094763;28;20032;-51
2021/12/17 15:13:14;;;;;;;27.60;13.40;;;5.80;99.90;;;;;;5094697;28;20081;-51
2021/12/17 15:15:41;;;;;;;26.63;10.00;;;5.70;99.90;;;;;;5094666;28;20032;-51
2021/12/17 15:18:14;;;;;;;19.92;9.68;;;5.70;99.90;;;;;;5107849;28;20020;-51
2021/12/17 15:20:46;;;;;;;20.17;9.23;;;5.60;99.90;;;;;;5114930;28;20034;-51
2021/12/17 15:23:14;;;;;;;39.70;15.77;;;5.60;99.90;;;;;;5115065;28;20084;-51
2021/12/17 15:25:41;;;;;;;29.10;13.38;;;5.50;99.90;;;;;;5114690;28;20106;-51
2021/12/17 15:28:09;;;;;;;59.90;29.58;;;5.40;99.90;;;;;;5114876;28;20023;-51
2021/12/17 15:30:42;;;;;;;36.83;16.58;;;5.30;99.90;;;;;;5114984;28;20031;-51
2021/12/17 15:33:10;;;;;;;32.83;15.30;;;5.30;99.90;;;;;;5114703;28;20164;-51
2021/12/17 15:35:37;;;;;;;30.15;13.35;;;5.30;99.90;;;;;;5115016;28;20597;-52
2021/12/17 15:38:07;;;;;;;32.35;12.40;;;5.20;99.90;;;;;;5114723;28;20489;-49
2021/12/17 15:40:40;;;;;;;33.30;15.95;;;5.10;99.90;;;;;;5115103;28;20100;-49
2021/12/17 15:43:07;;;;;;;26.25;12.68;;;5.10;99.90;;;;;;5114586;28;20496;-49
2021/12/17 15:45:39;;;;;;;33.33;15.98;;;5.10;99.90;;;;;;5114657;28;20028;-49
2021/12/17 15:48:07;;;;;;;28.45;12.75;;;5.00;99.90;;;;;;5114715;28;20027;-49
2021/12/17 15:50:33;;;;;;;29.08;11.85;;;5.00;99.90;;;;;;5114662;28;20031;-49
2021/12/17 15:52:59;;;;;;;30.38;11.60;;;5.00;99.90;;;;;;5114680;28;20551;-49
2021/12/17 15:55:28;;;;;;;24.60;12.23;;;4.90;99.90;;;;;;5114742;28;20028;-49
2021/12/17 15:57:54;;;;;;;27.45;13.63;;;4.90;99.90;;;;;;5114671;28;20469;-50
2021/12/17 16:00:23;;;;;;;28.30;13.32;;;4.90;99.90;;;;;;5114607;28;20457;-50
2021/12/17 16:02:50;;;;;;;31.63;14.95;;;4.90;99.90;;;;;;5114478;28;20058;-50
2021/12/17 16:05:17;;;;;;;40.88;18.45;;;4.90;99.90;;;;;;5114468;28;20025;-50
2021/12/17 16:07:44;;;;;;;32.28;16.63;;;5.00;99.90;;;;;;5114525;28;20080;-50
2021/12/17 16:23:21;;;;;;;38.70;18.90;;;5.00;99.90;;;;;;5094229;28;20036;-49
2021/12/17 16:25:47;;;;;;;38.90;18.35;;;4.90;99.90;;;;;;5093894;28;20020;-49
2021/12/17 16:28:13;;;;;;;39.45;19.40;;;4.90;99.90;;;;;;5093899;28;20035;-49
2021/12/17 16:30:39;;;;;;;36.78;19.23;;;4.90;99.90;;;;;;5075936;28;20035;-50
2021/12/17 16:33:05;;;;;;;42.03;21.50;;;4.90;99.90;;;;;;5093750;28;20063;-50
2021/12/17 16:35:31;;;;;;;39.50;19.25;;;5.00;99.90;;;;;;5093978;28;20024;-49